sensor_id;sensor_type;location;lat;lon;timestamp;temperature;humidity
70300;HTU21D;57704;51.112;5.878;2022-10-16T00:01:20;15.41;81.02
70300;HTU21D;57704;51.112;5.878;2022-10-16T00:03:47;15.42;80.87
70300;HTU21D;57704;51.112;5.878;2022-10-16T00:06:15;15.40;80.78
70300;HTU21D;57704;51.112;5.878;2022-10-16T00:08:43;15.39;80.66
70300;HTU21D;57704;51.112;5.878;2022-10-16T00:11:16;15.39;80.51
70300;HTU21D;57704;51.112;5.878;2022-10-16T00:13:45;15.38;80.40
70300;HTU21D;57704;51.112;5.878;2022-10-16T00:16:12;15.40;80.43
70300;HTU21D;57704;51.112;5.878;2022-10-16T00:18:39;15.40;80.32
70300;HTU21D;57704;51.112;5.878;2022-10-16T00:21:09;15.40;80.27
70300;HTU21D;57704;51.112;5.878;2022-10-16T00:23:57;15.41;80.12
70300;HTU21D;57704;51.112;5.878;2022-10-16T00:26:26;15.41;80.03
70300;HTU21D;57704;51.112;5.878;2022-10-16T00:28:53;15.44;79.85
70300;HTU21D;57704;51.112;5.878;2022-10-16T00:31:21;15.46;79.75
70300;HTU21D;57704;51.112;5.878;2022-10-16T00:33:48;15.46;79.66
70300;HTU21D;57704;51.112;5.878;2022-10-16T00:36:20;15.46;79.52
70300;HTU21D;57704;51.112;5.878;2022-10-16T00:38:47;15.44;79.41
70300;HTU21D;57704;51.112;5.878;2022-10-16T00:41:16;15.41;79.39
70300;HTU21D;57704;51.112;5.878;2022-10-16T00:43:46;15.41;79.52
70300;HTU21D;57704;51.112;5.878;2022-10-16T00:48:50;15.41;79.38
70300;HTU21D;57704;51.112;5.878;2022-10-16T00:51:25;15.40;79.30
70300;HTU21D;57704;51.112;5.878;2022-10-16T00:53:52;15.36;79.40
70300;HTU21D;57704;51.112;5.878;2022-10-16T00:56:18;15.37;79.38
70300;HTU21D;57704;51.112;5.878;2022-10-16T00:58:44;15.34;79.39
70300;HTU21D;57704;51.112;5.878;2022-10-16T01:01:11;15.34;79.36
70300;HTU21D;57704;51.112;5.878;2022-10-16T01:03:37;15.32;79.41
70300;HTU21D;57704;51.112;5.878;2022-10-16T01:06:06;15.32;79.43
70300;HTU21D;57704;51.112;5.878;2022-10-16T01:08:44;15.33;79.38
70300;HTU21D;57704;51.112;5.878;2022-10-16T01:11:22;15.34;79.30
70300;HTU21D;57704;51.112;5.878;2022-10-16T01:13:54;15.34;79.18
70300;HTU21D;57704;51.112;5.878;2022-10-16T01:19:16;15.30;79.32
70300;HTU21D;57704;51.112;5.878;2022-10-16T01:21:47;15.28;79.29
70300;HTU21D;57704;51.112;5.878;2022-10-16T01:24:33;15.27;79.32
70300;HTU21D;57704;51.112;5.878;2022-10-16T01:29:53;15.19;79.27
70300;HTU21D;57704;51.112;5.878;2022-10-16T01:35:29;15.09;79.46
70300;HTU21D;57704;51.112;5.878;2022-10-16T01:40:34;15.06;79.56
70300;HTU21D;57704;51.112;5.878;2022-10-16T01:43:07;15.06;79.60
70300;HTU21D;57704;51.112;5.878;2022-10-16T01:45:36;15.03;79.54
70300;HTU21D;57704;51.112;5.878;2022-10-16T01:48:05;14.99;79.53
70300;HTU21D;57704;51.112;5.878;2022-10-16T01:50:38;14.97;79.62
70300;HTU21D;57704;51.112;5.878;2022-10-16T01:53:09;14.97;79.71
70300;HTU21D;57704;51.112;5.878;2022-10-16T01:55:42;14.97;79.62
70300;HTU21D;57704;51.112;5.878;2022-10-16T01:58:13;14.96;79.62
70300;HTU21D;57704;51.112;5.878;2022-10-16T02:00:43;14.93;79.71
70300;HTU21D;57704;51.112;5.878;2022-10-16T02:03:12;14.92;79.82
70300;HTU21D;57704;51.112;5.878;2022-10-16T02:06:04;14.93;79.88
70300;HTU21D;57704;51.112;5.878;2022-10-16T02:08:31;14.94;79.80
70300;HTU21D;57704;51.112;5.878;2022-10-16T02:10:58;14.95;79.74
70300;HTU21D;57704;51.112;5.878;2022-10-16T02:13:44;14.96;79.73
70300;HTU21D;57704;51.112;5.878;2022-10-16T02:16:13;14.96;79.75
70300;HTU21D;57704;51.112;5.878;2022-10-16T02:18:42;14.98;79.61
70300;HTU21D;57704;51.112;5.878;2022-10-16T02:21:48;14.97;79.72
70300;HTU21D;57704;51.112;5.878;2022-10-16T02:27:19;15.00;79.66
70300;HTU21D;57704;51.112;5.878;2022-10-16T02:29:53;15.01;79.56
70300;HTU21D;57704;51.112;5.878;2022-10-16T02:32:30;15.01;79.49
70300;HTU21D;57704;51.112;5.878;2022-10-16T02:34:59;15.04;79.46
70300;HTU21D;57704;51.112;5.878;2022-10-16T02:37:27;15.06;79.38
70300;HTU21D;57704;51.112;5.878;2022-10-16T02:39:56;15.06;79.37
70300;HTU21D;57704;51.112;5.878;2022-10-16T02:42:29;15.08;79.35
70300;HTU21D;57704;51.112;5.878;2022-10-16T02:44:58;15.08;79.27
70300;HTU21D;57704;51.112;5.878;2022-10-16T02:47:24;15.10;79.35
70300;HTU21D;57704;51.112;5.878;2022-10-16T02:49:50;15.14;79.16
70300;HTU21D;57704;51.112;5.878;2022-10-16T02:52:16;15.16;79.14
70300;HTU21D;57704;51.112;5.878;2022-10-16T02:54:42;15.16;79.13
70300;HTU21D;57704;51.112;5.878;2022-10-16T02:57:08;15.17;79.13
70300;HTU21D;57704;51.112;5.878;2022-10-16T02:59:34;15.18;79.09
70300;HTU21D;57704;51.112;5.878;2022-10-16T03:02:00;15.19;79.11
70300;HTU21D;57704;51.112;5.878;2022-10-16T03:04:27;15.19;79.13
70300;HTU21D;57704;51.112;5.878;2022-10-16T03:06:53;15.17;79.16
70300;HTU21D;57704;51.112;5.878;2022-10-16T03:09:19;15.18;79.12
70300;HTU21D;57704;51.112;5.878;2022-10-16T03:11:45;15.18;79.17
70300;HTU21D;57704;51.112;5.878;2022-10-16T03:14:11;15.19;79.19
70300;HTU21D;57704;51.112;5.878;2022-10-16T03:16:37;15.18;79.11
70300;HTU21D;57704;51.112;5.878;2022-10-16T03:19:04;15.18;79.19
70300;HTU21D;57704;51.112;5.878;2022-10-16T03:21:30;15.17;79.18
70300;HTU21D;57704;51.112;5.878;2022-10-16T03:23:56;15.17;79.18
70300;HTU21D;57704;51.112;5.878;2022-10-16T03:26:22;15.16;79.18
70300;HTU21D;57704;51.112;5.878;2022-10-16T03:28:48;15.14;79.18
70300;HTU21D;57704;51.112;5.878;2022-10-16T03:31:14;15.11;79.18
70300;HTU21D;57704;51.112;5.878;2022-10-16T03:33:40;15.09;79.10
70300;HTU21D;57704;51.112;5.878;2022-10-16T03:36:06;15.03;79.28
70300;HTU21D;57704;51.112;5.878;2022-10-16T03:38:32;15.04;79.32
70300;HTU21D;57704;51.112;5.878;2022-10-16T03:40:59;15.02;79.27
70300;HTU21D;57704;51.112;5.878;2022-10-16T03:43:25;15.00;79.31
70300;HTU21D;57704;51.112;5.878;2022-10-16T03:45:51;15.01;79.33
70300;HTU21D;57704;51.112;5.878;2022-10-16T03:48:20;14.99;79.29
70300;HTU21D;57704;51.112;5.878;2022-10-16T03:50:46;14.98;79.38
70300;HTU21D;57704;51.112;5.878;2022-10-16T03:53:14;14.93;79.45
70300;HTU21D;57704;51.112;5.878;2022-10-16T03:55:44;14.92;79.49
70300;HTU21D;57704;51.112;5.878;2022-10-16T03:58:13;14.89;79.54
70300;HTU21D;57704;51.112;5.878;2022-10-16T04:00:44;14.89;79.62
70300;HTU21D;57704;51.112;5.878;2022-10-16T04:03:11;14.87;79.66
70300;HTU21D;57704;51.112;5.878;2022-10-16T04:05:37;14.85;79.75
70300;HTU21D;57704;51.112;5.878;2022-10-16T04:08:04;14.85;79.79
70300;HTU21D;57704;51.112;5.878;2022-10-16T04:10:30;14.83;79.83
70300;HTU21D;57704;51.112;5.878;2022-10-16T04:12:56;14.82;79.83
70300;HTU21D;57704;51.112;5.878;2022-10-16T04:15:25;14.83;79.82
70300;HTU21D;57704;51.112;5.878;2022-10-16T04:17:52;14.82;79.85
70300;HTU21D;57704;51.112;5.878;2022-10-16T04:20:18;14.82;79.81
70300;HTU21D;57704;51.112;5.878;2022-10-16T04:22:44;14.82;79.86
70300;HTU21D;57704;51.112;5.878;2022-10-16T04:25:11;14.81;79.88
70300;HTU21D;57704;51.112;5.878;2022-10-16T04:27:41;14.81;79.93
70300;HTU21D;57704;51.112;5.878;2022-10-16T04:30:07;14.81;79.93
70300;HTU21D;57704;51.112;5.878;2022-10-16T04:32:34;14.79;79.91
70300;HTU21D;57704;51.112;5.878;2022-10-16T04:35:00;14.74;80.01
70300;HTU21D;57704;51.112;5.878;2022-10-16T04:37:26;14.77;80.06
70300;HTU21D;57704;51.112;5.878;2022-10-16T04:39:53;14.77;80.07
70300;HTU21D;57704;51.112;5.878;2022-10-16T04:42:20;14.78;80.07
70300;HTU21D;57704;51.112;5.878;2022-10-16T04:44:47;14.80;80.10
70300;HTU21D;57704;51.112;5.878;2022-10-16T04:47:13;14.80;80.10
70300;HTU21D;57704;51.112;5.878;2022-10-16T04:49:40;14.81;80.11
70300;HTU21D;57704;51.112;5.878;2022-10-16T04:52:06;14.80;80.11
70300;HTU21D;57704;51.112;5.878;2022-10-16T04:54:32;14.79;80.11
70300;HTU21D;57704;51.112;5.878;2022-10-16T04:56:58;14.81;80.11
70300;HTU21D;57704;51.112;5.878;2022-10-16T04:59:24;14.80;80.14
70300;HTU21D;57704;51.112;5.878;2022-10-16T05:01:50;14.80;80.17
70300;HTU21D;57704;51.112;5.878;2022-10-16T05:04:16;14.79;80.22
70300;HTU21D;57704;51.112;5.878;2022-10-16T05:06:45;14.79;80.21
70300;HTU21D;57704;51.112;5.878;2022-10-16T05:09:11;14.79;80.17
70300;HTU21D;57704;51.112;5.878;2022-10-16T05:11:37;14.77;80.20
70300;HTU21D;57704;51.112;5.878;2022-10-16T05:14:03;14.77;80.25
70300;HTU21D;57704;51.112;5.878;2022-10-16T05:16:30;14.74;80.43
70300;HTU21D;57704;51.112;5.878;2022-10-16T05:18:56;14.75;80.46
70300;HTU21D;57704;51.112;5.878;2022-10-16T05:21:22;14.75;80.46
70300;HTU21D;57704;51.112;5.878;2022-10-16T05:23:49;14.74;80.44
70300;HTU21D;57704;51.112;5.878;2022-10-16T05:26:15;14.73;80.47
70300;HTU21D;57704;51.112;5.878;2022-10-16T05:28:41;14.71;80.56
70300;HTU21D;57704;51.112;5.878;2022-10-16T05:31:09;14.72;80.62
70300;HTU21D;57704;51.112;5.878;2022-10-16T05:33:35;14.71;80.65
70300;HTU21D;57704;51.112;5.878;2022-10-16T05:36:03;14.70;80.72
70300;HTU21D;57704;51.112;5.878;2022-10-16T05:38:29;14.69;80.67
70300;HTU21D;57704;51.112;5.878;2022-10-16T05:40:55;14.68;80.72
70300;HTU21D;57704;51.112;5.878;2022-10-16T05:43:22;14.66;80.78
70300;HTU21D;57704;51.112;5.878;2022-10-16T05:46:01;14.66;80.86
70300;HTU21D;57704;51.112;5.878;2022-10-16T05:48:27;14.64;80.93
70300;HTU21D;57704;51.112;5.878;2022-10-16T05:53:24;14.62;80.94
70300;HTU21D;57704;51.112;5.878;2022-10-16T05:55:52;14.60;80.97
70300;HTU21D;57704;51.112;5.878;2022-10-16T05:58:18;14.63;80.94
70300;HTU21D;57704;51.112;5.878;2022-10-16T06:00:44;14.64;81.04
70300;HTU21D;57704;51.112;5.878;2022-10-16T06:03:10;14.66;81.06
70300;HTU21D;57704;51.112;5.878;2022-10-16T06:05:36;14.63;81.07
70300;HTU21D;57704;51.112;5.878;2022-10-16T06:08:03;14.63;81.12
70300;HTU21D;57704;51.112;5.878;2022-10-16T06:10:29;14.64;81.14
70300;HTU21D;57704;51.112;5.878;2022-10-16T06:12:55;14.66;81.14
70300;HTU21D;57704;51.112;5.878;2022-10-16T06:15:21;14.70;81.10
70300;HTU21D;57704;51.112;5.878;2022-10-16T06:17:47;14.72;81.02
70300;HTU21D;57704;51.112;5.878;2022-10-16T06:20:13;14.71;80.98
70300;HTU21D;57704;51.112;5.878;2022-10-16T06:22:40;14.72;80.92
70300;HTU21D;57704;51.112;5.878;2022-10-16T06:25:08;14.71;80.91
70300;HTU21D;57704;51.112;5.878;2022-10-16T06:27:34;14.71;80.93
70300;HTU21D;57704;51.112;5.878;2022-10-16T06:30:00;14.69;81.01
70300;HTU21D;57704;51.112;5.878;2022-10-16T06:32:27;14.71;80.91
70300;HTU21D;57704;51.112;5.878;2022-10-16T06:34:53;14.70;80.91
70300;HTU21D;57704;51.112;5.878;2022-10-16T06:37:19;14.69;80.93
70300;HTU21D;57704;51.112;5.878;2022-10-16T06:39:46;14.69;80.92
70300;HTU21D;57704;51.112;5.878;2022-10-16T06:42:12;14.70;80.95
70300;HTU21D;57704;51.112;5.878;2022-10-16T06:44:38;14.72;80.92
70300;HTU21D;57704;51.112;5.878;2022-10-16T06:47:07;14.72;80.79
70300;HTU21D;57704;51.112;5.878;2022-10-16T06:49:34;14.70;80.76
70300;HTU21D;57704;51.112;5.878;2022-10-16T06:52:01;14.70;80.84
70300;HTU21D;57704;51.112;5.878;2022-10-16T06:54:28;14.70;80.80
70300;HTU21D;57704;51.112;5.878;2022-10-16T06:56:54;14.71;80.84
70300;HTU21D;57704;51.112;5.878;2022-10-16T06:59:20;14.74;80.80
70300;HTU21D;57704;51.112;5.878;2022-10-16T07:01:47;14.77;80.75
70300;HTU21D;57704;51.112;5.878;2022-10-16T07:04:13;14.81;80.78
70300;HTU21D;57704;51.112;5.878;2022-10-16T07:06:40;14.87;80.78
70300;HTU21D;57704;51.112;5.878;2022-10-16T07:09:09;15.01;81.10
70300;HTU21D;57704;51.112;5.878;2022-10-16T07:11:38;15.83;85.22
70300;HTU21D;57704;51.112;5.878;2022-10-16T07:14:08;17.22;80.05
70300;HTU21D;57704;51.112;5.878;2022-10-16T07:16:37;17.93;76.92
70300;HTU21D;57704;51.112;5.878;2022-10-16T07:19:03;18.12;72.67
70300;HTU21D;57704;51.112;5.878;2022-10-16T07:21:32;18.67;76.60
70300;HTU21D;57704;51.112;5.878;2022-10-16T07:24:02;20.35;74.18
70300;HTU21D;57704;51.112;5.878;2022-10-16T07:26:34;22.02;68.96
70300;HTU21D;57704;51.112;5.878;2022-10-16T07:29:01;23.47;63.96
70300;HTU21D;57704;51.112;5.878;2022-10-16T07:31:27;24.55;59.83
70300;HTU21D;57704;51.112;5.878;2022-10-16T07:33:54;25.50;56.85
70300;HTU21D;57704;51.112;5.878;2022-10-16T07:36:21;26.06;54.05
70300;HTU21D;57704;51.112;5.878;2022-10-16T07:38:47;26.30;52.69
70300;HTU21D;57704;51.112;5.878;2022-10-16T07:41:16;26.60;51.69
70300;HTU21D;57704;51.112;5.878;2022-10-16T07:43:51;26.60;50.98
70300;HTU21D;57704;51.112;5.878;2022-10-16T07:46:19;26.84;50.55
70300;HTU21D;57704;51.112;5.878;2022-10-16T07:48:46;27.14;48.20
70300;HTU21D;57704;51.112;5.878;2022-10-16T07:51:16;27.10;48.73
70300;HTU21D;57704;51.112;5.878;2022-10-16T07:53:42;27.07;48.69
70300;HTU21D;57704;51.112;5.878;2022-10-16T07:56:09;27.25;48.79
70300;HTU21D;57704;51.112;5.878;2022-10-16T07:58:42;27.73;48.72
70300;HTU21D;57704;51.112;5.878;2022-10-16T08:01:11;28.46;45.85
70300;HTU21D;57704;51.112;5.878;2022-10-16T08:03:37;28.61;45.16
70300;HTU21D;57704;51.112;5.878;2022-10-16T08:06:04;28.58;45.38
70300;HTU21D;57704;51.112;5.878;2022-10-16T08:08:31;28.58;45.00
70300;HTU21D;57704;51.112;5.878;2022-10-16T08:10:57;28.24;45.81
70300;HTU21D;57704;51.112;5.878;2022-10-16T08:13:24;28.20;45.64
70300;HTU21D;57704;51.112;5.878;2022-10-16T08:15:50;28.20;45.03
70300;HTU21D;57704;51.112;5.878;2022-10-16T08:18:16;28.47;45.28
70300;HTU21D;57704;51.112;5.878;2022-10-16T08:20:43;29.00;44.76
70300;HTU21D;57704;51.112;5.878;2022-10-16T08:23:11;29.54;43.03
70300;HTU21D;57704;51.112;5.878;2022-10-16T08:25:38;29.24;42.67
70300;HTU21D;57704;51.112;5.878;2022-10-16T08:28:06;28.86;43.27
70300;HTU21D;57704;51.112;5.878;2022-10-16T08:30:34;28.89;43.48
70300;HTU21D;57704;51.112;5.878;2022-10-16T08:33:01;29.19;42.76
70300;HTU21D;57704;51.112;5.878;2022-10-16T08:35:28;29.59;41.80
70300;HTU21D;57704;51.112;5.878;2022-10-16T08:37:55;29.50;41.18
70300;HTU21D;57704;51.112;5.878;2022-10-16T08:40:29;29.01;41.58
70300;HTU21D;57704;51.112;5.878;2022-10-16T08:48:55;28.53;43.08
70300;HTU21D;57704;51.112;5.878;2022-10-16T08:51:36;28.62;42.55
70300;HTU21D;57704;51.112;5.878;2022-10-16T08:54:06;28.78;41.51
70300;HTU21D;57704;51.112;5.878;2022-10-16T08:56:33;28.37;41.73
70300;HTU21D;57704;51.112;5.878;2022-10-16T08:59:00;28.15;42.60
70300;HTU21D;57704;51.112;5.878;2022-10-16T09:01:41;28.39;41.82
70300;HTU21D;57704;51.112;5.878;2022-10-16T09:16:09;28.71;41.65
70300;HTU21D;57704;51.112;5.878;2022-10-16T09:19:05;29.20;40.57
70300;HTU21D;57704;51.112;5.878;2022-10-16T09:21:45;29.62;39.31
70300;HTU21D;57704;51.112;5.878;2022-10-16T09:24:23;29.15;39.78
70300;HTU21D;57704;51.112;5.878;2022-10-16T09:26:51;28.87;40.85
70300;HTU21D;57704;51.112;5.878;2022-10-16T09:29:20;28.87;39.52
70300;HTU21D;57704;51.112;5.878;2022-10-16T09:31:48;28.46;39.58
70300;HTU21D;57704;51.112;5.878;2022-10-16T09:34:32;28.25;41.08
70300;HTU21D;57704;51.112;5.878;2022-10-16T09:37:04;28.12;40.92
70300;HTU21D;57704;51.112;5.878;2022-10-16T09:39:44;27.85;41.43
70300;HTU21D;57704;51.112;5.878;2022-10-16T09:42:20;28.05;41.11
70300;HTU21D;57704;51.112;5.878;2022-10-16T09:44:50;27.93;41.42
70300;HTU21D;57704;51.112;5.878;2022-10-16T09:47:26;27.96;41.29
70300;HTU21D;57704;51.112;5.878;2022-10-16T09:50:00;27.95;40.97
70300;HTU21D;57704;51.112;5.878;2022-10-16T09:52:33;27.85;41.36
70300;HTU21D;57704;51.112;5.878;2022-10-16T09:55:13;27.86;40.88
70300;HTU21D;57704;51.112;5.878;2022-10-16T09:57:55;27.36;41.94
70300;HTU21D;57704;51.112;5.878;2022-10-16T10:00:31;27.14;42.29
70300;HTU21D;57704;51.112;5.878;2022-10-16T10:03:01;27.04;42.28
70300;HTU21D;57704;51.112;5.878;2022-10-16T10:05:40;27.23;42.41
70300;HTU21D;57704;51.112;5.878;2022-10-16T10:08:18;27.59;41.43
70300;HTU21D;57704;51.112;5.878;2022-10-16T10:10:48;27.20;41.17
70300;HTU21D;57704;51.112;5.878;2022-10-16T10:13:20;26.70;42.42
70300;HTU21D;57704;51.112;5.878;2022-10-16T10:15:48;26.58;42.50
70300;HTU21D;57704;51.112;5.878;2022-10-16T10:18:21;26.50;42.64
70300;HTU21D;57704;51.112;5.878;2022-10-16T10:20:58;26.47;42.90
70300;HTU21D;57704;51.112;5.878;2022-10-16T10:23:29;26.41;40.86
70300;HTU21D;57704;51.112;5.878;2022-10-16T10:37:12;26.60;42.94
70300;HTU21D;57704;51.112;5.878;2022-10-16T10:39:53;26.64;42.33
70300;HTU21D;57704;51.112;5.878;2022-10-16T10:42:32;26.36;43.29
70300;HTU21D;57704;51.112;5.878;2022-10-16T10:45:20;26.48;43.16
70300;HTU21D;57704;51.112;5.878;2022-10-16T10:50:43;26.04;43.33
70300;HTU21D;57704;51.112;5.878;2022-10-16T11:01:56;24.83;45.28
70300;HTU21D;57704;51.112;5.878;2022-10-16T11:07:32;24.13;46.67
70300;HTU21D;57704;51.112;5.878;2022-10-16T11:10:22;24.01;46.99
70300;HTU21D;57704;51.112;5.878;2022-10-16T11:15:52;24.57;47.25
70300;HTU21D;57704;51.112;5.878;2022-10-16T11:18:30;25.15;46.09
70300;HTU21D;57704;51.112;5.878;2022-10-16T11:21:13;25.69;45.35
70300;HTU21D;57704;51.112;5.878;2022-10-16T11:26:34;26.71;43.41
70300;HTU21D;57704;51.112;5.878;2022-10-16T11:29:12;27.28;42.68
70300;HTU21D;57704;51.112;5.878;2022-10-16T11:32:11;27.72;41.73
70300;HTU21D;57704;51.112;5.878;2022-10-16T11:34:50;28.00;40.78
70300;HTU21D;57704;51.112;5.878;2022-10-16T11:37:33;28.05;40.32
70300;HTU21D;57704;51.112;5.878;2022-10-16T11:40:25;28.05;39.97
70300;HTU21D;57704;51.112;5.878;2022-10-16T11:43:02;27.60;40.26
70300;HTU21D;57704;51.112;5.878;2022-10-16T11:45:44;27.22;40.40
70300;HTU21D;57704;51.112;5.878;2022-10-16T11:48:42;26.93;41.23
70300;HTU21D;57704;51.112;5.878;2022-10-16T11:51:43;26.94;41.39
70300;HTU21D;57704;51.112;5.878;2022-10-16T11:57:24;26.53;41.86
70300;HTU21D;57704;51.112;5.878;2022-10-16T12:00:02;26.43;42.07
70300;HTU21D;57704;51.112;5.878;2022-10-16T12:05:52;26.11;42.37
70300;HTU21D;57704;51.112;5.878;2022-10-16T12:08:21;25.81;43.00
70300;HTU21D;57704;51.112;5.878;2022-10-16T12:10:48;25.68;43.30
70300;HTU21D;57704;51.112;5.878;2022-10-16T12:13:28;25.56;43.42
70300;HTU21D;57704;51.112;5.878;2022-10-16T12:18:35;26.80;42.26
70300;HTU21D;57704;51.112;5.878;2022-10-16T12:21:01;27.55;40.63
70300;HTU21D;57704;51.112;5.878;2022-10-16T12:23:37;27.54;39.99
70300;HTU21D;57704;51.112;5.878;2022-10-16T12:26:05;26.94;40.80
70300;HTU21D;57704;51.112;5.878;2022-10-16T12:28:33;26.35;41.78
70300;HTU21D;57704;51.112;5.878;2022-10-16T12:31:03;25.91;42.73
70300;HTU21D;57704;51.112;5.878;2022-10-16T12:33:37;25.58;42.82
70300;HTU21D;57704;51.112;5.878;2022-10-16T12:36:16;25.28;44.02
70300;HTU21D;57704;51.112;5.878;2022-10-16T12:38:53;25.08;44.48
70300;HTU21D;57704;51.112;5.878;2022-10-16T12:41:33;24.98;44.89
70300;HTU21D;57704;51.112;5.878;2022-10-16T12:44:01;24.98;44.93
70300;HTU21D;57704;51.112;5.878;2022-10-16T12:51:42;24.38;45.63
70300;HTU21D;57704;51.112;5.878;2022-10-16T12:54:12;24.20;46.14
70300;HTU21D;57704;51.112;5.878;2022-10-16T12:59:36;24.23;46.89
70300;HTU21D;57704;51.112;5.878;2022-10-16T13:05:35;24.73;45.86
70300;HTU21D;57704;51.112;5.878;2022-10-16T13:11:14;24.63;44.91
70300;HTU21D;57704;51.112;5.878;2022-10-16T13:14:18;24.43;44.80
70300;HTU21D;57704;51.112;5.878;2022-10-16T13:19:40;24.14;46.02
70300;HTU21D;57704;51.112;5.878;2022-10-16T13:25:21;24.02;46.40
70300;HTU21D;57704;51.112;5.878;2022-10-16T13:28:05;23.92;46.78
70300;HTU21D;57704;51.112;5.878;2022-10-16T13:30:43;23.81;46.80
70300;HTU21D;57704;51.112;5.878;2022-10-16T13:35:57;23.62;47.25
70300;HTU21D;57704;51.112;5.878;2022-10-16T13:38:30;23.44;47.43
70300;HTU21D;57704;51.112;5.878;2022-10-16T13:41:00;23.28;47.76
70300;HTU21D;57704;51.112;5.878;2022-10-16T13:46:10;23.18;48.20
70300;HTU21D;57704;51.112;5.878;2022-10-16T13:48:37;23.16;48.38
70300;HTU21D;57704;51.112;5.878;2022-10-16T13:51:16;23.13;48.44
70300;HTU21D;57704;51.112;5.878;2022-10-16T13:53:44;23.07;48.60
70300;HTU21D;57704;51.112;5.878;2022-10-16T13:56:14;23.01;48.89
70300;HTU21D;57704;51.112;5.878;2022-10-16T13:58:41;23.03;49.03
70300;HTU21D;57704;51.112;5.878;2022-10-16T14:01:16;22.98;49.23
70300;HTU21D;57704;51.112;5.878;2022-10-16T14:03:44;22.94;49.41
70300;HTU21D;57704;51.112;5.878;2022-10-16T14:06:15;22.83;49.53
70300;HTU21D;57704;51.112;5.878;2022-10-16T14:08:45;22.77;49.73
70300;HTU21D;57704;51.112;5.878;2022-10-16T14:11:21;22.61;49.97
70300;HTU21D;57704;51.112;5.878;2022-10-16T14:13:53;22.60;50.39
70300;HTU21D;57704;51.112;5.878;2022-10-16T14:16:27;22.34;51.88
70300;HTU21D;57704;51.112;5.878;2022-10-16T14:18:56;21.87;54.04
70300;HTU21D;57704;51.112;5.878;2022-10-16T14:21:25;21.51;55.70
70300;HTU21D;57704;51.112;5.878;2022-10-16T14:23:52;21.31;56.82
70300;HTU21D;57704;51.112;5.878;2022-10-16T14:26:28;21.17;57.86
70300;HTU21D;57704;51.112;5.878;2022-10-16T14:29:30;21.04;58.76
70300;HTU21D;57704;51.112;5.878;2022-10-16T14:32:03;20.94;59.13
70300;HTU21D;57704;51.112;5.878;2022-10-16T14:34:35;20.85;59.36
70300;HTU21D;57704;51.112;5.878;2022-10-16T14:37:20;20.78;59.85
70300;HTU21D;57704;51.112;5.878;2022-10-16T14:39:50;20.73;60.07
70300;HTU21D;57704;51.112;5.878;2022-10-16T14:42:21;20.68;60.54
70300;HTU21D;57704;51.112;5.878;2022-10-16T14:44:52;20.65;60.67
70300;HTU21D;57704;51.112;5.878;2022-10-16T14:47:22;20.61;60.60
70300;HTU21D;57704;51.112;5.878;2022-10-16T14:49:53;20.59;60.83
70300;HTU21D;57704;51.112;5.878;2022-10-16T14:52:21;20.59;60.92
70300;HTU21D;57704;51.112;5.878;2022-10-16T14:54:48;20.55;60.99
70300;HTU21D;57704;51.112;5.878;2022-10-16T14:57:27;20.55;61.16
70300;HTU21D;57704;51.112;5.878;2022-10-16T14:59:54;20.54;61.45
70300;HTU21D;57704;51.112;5.878;2022-10-16T15:02:28;20.53;61.63
70300;HTU21D;57704;51.112;5.878;2022-10-16T15:04:56;20.51;61.73
70300;HTU21D;57704;51.112;5.878;2022-10-16T15:07:23;20.55;61.78
70300;HTU21D;57704;51.112;5.878;2022-10-16T15:09:50;20.58;61.78
70300;HTU21D;57704;51.112;5.878;2022-10-16T15:12:16;20.59;61.75
70300;HTU21D;57704;51.112;5.878;2022-10-16T15:14:43;20.60;61.54
70300;HTU21D;57704;51.112;5.878;2022-10-16T15:17:12;20.60;61.52
70300;HTU21D;57704;51.112;5.878;2022-10-16T15:19:38;20.65;61.45
70300;HTU21D;57704;51.112;5.878;2022-10-16T15:22:04;20.63;61.38
70300;HTU21D;57704;51.112;5.878;2022-10-16T15:24:30;20.61;61.31
70300;HTU21D;57704;51.112;5.878;2022-10-16T15:26:57;20.62;61.37
70300;HTU21D;57704;51.112;5.878;2022-10-16T15:29:23;20.63;61.47
70300;HTU21D;57704;51.112;5.878;2022-10-16T15:31:49;20.60;61.38
70300;HTU21D;57704;51.112;5.878;2022-10-16T15:34:16;20.61;61.41
70300;HTU21D;57704;51.112;5.878;2022-10-16T15:36:45;20.61;61.56
70300;HTU21D;57704;51.112;5.878;2022-10-16T15:39:17;20.60;61.54
70300;HTU21D;57704;51.112;5.878;2022-10-16T15:41:46;20.59;61.48
70300;HTU21D;57704;51.112;5.878;2022-10-16T15:44:17;20.59;61.55
70300;HTU21D;57704;51.112;5.878;2022-10-16T15:46:43;20.55;61.40
70300;HTU21D;57704;51.112;5.878;2022-10-16T15:49:11;20.43;61.54
70300;HTU21D;57704;51.112;5.878;2022-10-16T15:51:40;20.33;61.71
70300;HTU21D;57704;51.112;5.878;2022-10-16T15:54:06;20.27;61.85
70300;HTU21D;57704;51.112;5.878;2022-10-16T15:56:35;20.25;61.86
70300;HTU21D;57704;51.112;5.878;2022-10-16T15:59:02;20.17;62.08
70300;HTU21D;57704;51.112;5.878;2022-10-16T16:01:35;20.12;62.38
70300;HTU21D;57704;51.112;5.878;2022-10-16T16:04:01;20.06;62.46
70300;HTU21D;57704;51.112;5.878;2022-10-16T16:06:27;20.01;62.64
70300;HTU21D;57704;51.112;5.878;2022-10-16T16:08:54;20.00;62.74
70300;HTU21D;57704;51.112;5.878;2022-10-16T16:11:20;19.99;62.85
70300;HTU21D;57704;51.112;5.878;2022-10-16T16:13:49;19.92;62.95
70300;HTU21D;57704;51.112;5.878;2022-10-16T16:16:16;19.86;63.11
70300;HTU21D;57704;51.112;5.878;2022-10-16T16:18:44;19.81;63.37
70300;HTU21D;57704;51.112;5.878;2022-10-16T16:21:11;19.74;63.64
70300;HTU21D;57704;51.112;5.878;2022-10-16T16:23:38;19.68;63.87
70300;HTU21D;57704;51.112;5.878;2022-10-16T16:26:13;19.65;64.07
70300;HTU21D;57704;51.112;5.878;2022-10-16T16:28:42;19.67;64.16
70300;HTU21D;57704;51.112;5.878;2022-10-16T16:31:09;19.67;64.19
70300;HTU21D;57704;51.112;5.878;2022-10-16T16:33:36;19.65;64.27
70300;HTU21D;57704;51.112;5.878;2022-10-16T16:36:05;19.56;64.37
70300;HTU21D;57704;51.112;5.878;2022-10-16T16:38:33;19.46;64.59
70300;HTU21D;57704;51.112;5.878;2022-10-16T16:40:59;19.35;64.88
70300;HTU21D;57704;51.112;5.878;2022-10-16T16:43:27;19.31;65.08
70300;HTU21D;57704;51.112;5.878;2022-10-16T16:45:54;19.28;65.24
70300;HTU21D;57704;51.112;5.878;2022-10-16T16:48:21;19.24;65.37
70300;HTU21D;57704;51.112;5.878;2022-10-16T16:50:47;19.20;65.48
70300;HTU21D;57704;51.112;5.878;2022-10-16T16:53:14;19.18;65.60
70300;HTU21D;57704;51.112;5.878;2022-10-16T16:55:40;19.14;65.80
70300;HTU21D;57704;51.112;5.878;2022-10-16T16:58:07;19.13;65.94
70300;HTU21D;57704;51.112;5.878;2022-10-16T17:00:33;19.10;66.01
70300;HTU21D;57704;51.112;5.878;2022-10-16T17:02:59;19.11;66.07
70300;HTU21D;57704;51.112;5.878;2022-10-16T17:05:25;19.13;66.10
70300;HTU21D;57704;51.112;5.878;2022-10-16T17:07:52;19.09;66.17
70300;HTU21D;57704;51.112;5.878;2022-10-16T17:10:18;19.05;66.32
70300;HTU21D;57704;51.112;5.878;2022-10-16T17:12:44;19.03;66.42
70300;HTU21D;57704;51.112;5.878;2022-10-16T17:15:10;19.02;66.46
70300;HTU21D;57704;51.112;5.878;2022-10-16T17:17:36;19.00;66.51